Time;durP1;ratioP1;P1;durP2;ratioP2;P2;SDS_P1;SDS_P2;PMS_P1;PMS_P2;Temp;Humidity;BMP_temperature;BMP_pressure;BME280_temperature;BME280_humidity;BME280_pressure;Samples;Min_cycle;Max_cycle;Signal;HPM_P1;HPM_P2
2023/06/15 00:01:33;;;;;;;2.35;1.63;;;19.00;83.50;;;;;;4177640;28;20048;-59
2023/06/15 00:03:33;;;;;;;2.85;1.85;;;19.10;83.30;;;;;;4187480;28;20052;-60
2023/06/15 00:05:34;;;;;;;2.55;1.70;;;19.20;83.20;;;;;;4184656;28;20032;-59
2023/06/15 00:07:35;;;;;;;3.08;1.92;;;19.20;83.10;;;;;;4182222;28;20047;-59
2023/06/15 00:09:35;;;;;;;2.22;1.77;;;19.30;83.30;;;;;;4192037;28;20036;-59
2023/06/15 00:11:36;;;;;;;3.15;2.00;;;19.40;84.00;;;;;;4181002;28;20116;-59
2023/06/15 00:13:36;;;;;;;2.97;2.10;;;19.50;84.20;;;;;;4180162;28;20040;-59
2023/06/15 00:15:39;;;;;;;3.05;2.20;;;19.60;83.50;;;;;;4180792;28;20033;-60
2023/06/15 00:17:41;;;;;;;2.55;2.08;;;19.70;83.10;;;;;;4186548;28;20510;-59
2023/06/15 00:19:44;;;;;;;;;;;19.70;82.20;;;;;;4186371;28;20595;-64
2023/06/15 00:21:47;;;;;;;3.75;2.20;;;19.80;82.90;;;;;;4172900;28;19919;-60
2023/06/15 00:23:48;;;;;;;2.10;1.80;;;19.90;82.30;;;;;;4184005;28;20043;-60
2023/06/15 00:25:49;;;;;;;4.80;2.20;;;19.90;82.70;;;;;;4181978;28;20605;-59
2023/06/15 00:27:49;;;;;;;3.78;1.75;;;20.00;83.10;;;;;;4171856;28;20034;-59
2023/06/15 00:29:50;;;;;;;3.83;1.98;;;20.00;83.00;;;;;;4163188;28;20075;-59
2023/06/15 00:31:51;;;;;;;2.47;1.83;;;20.10;82.10;;;;;;4182438;28;20044;-59
2023/06/15 00:33:52;;;;;;;2.75;1.80;;;20.10;82.70;;;;;;4175624;28;20025;-59
2023/06/15 00:35:53;;;;;;;3.08;1.83;;;20.10;82.50;;;;;;4184017;28;20032;-60
2023/06/15 00:37:53;;;;;;;2.03;1.60;;;20.10;81.60;;;;;;4183180;28;20028;-60
2023/06/15 00:39:55;;;;;;;3.67;2.30;;;20.10;82.30;;;;;;4177694;28;20020;-59
2023/06/15 00:41:56;;;;;;;3.13;2.03;;;20.20;82.10;;;;;;4181093;28;20031;-59
2023/06/15 00:43:56;;;;;;;2.40;1.88;;;20.10;81.70;;;;;;4190193;28;20104;-59
2023/06/15 00:45:57;;;;;;;4.63;2.50;;;20.20;81.80;;;;;;4179899;28;20091;-59
2023/06/15 00:47:58;;;;;;;4.22;2.10;;;20.20;81.40;;;;;;4179050;28;20037;-59
2023/06/15 00:49:58;;;;;;;3.83;1.95;;;20.30;81.00;;;;;;4190496;28;20028;-59
2023/06/15 00:52:00;;;;;;;3.63;2.10;;;20.30;81.40;;;;;;4180716;28;20045;-59
2023/06/15 00:54:02;;;;;;;2.97;2.00;;;20.30;80.80;;;;;;4183224;28;20107;-59
2023/06/15 00:56:05;;;;;;;3.50;2.13;;;20.40;80.00;;;;;;4183587;28;20071;-60
2023/06/15 00:58:06;;;;;;;2.83;1.90;;;20.40;79.30;;;;;;4181588;28;20041;-59
2023/06/15 01:00:09;;;;;;;3.55;2.47;;;20.40;80.30;;;;;;4186565;28;20387;-60
2023/06/15 01:02:12;;;;;;;2.50;2.13;;;20.40;80.20;;;;;;4181139;28;20029;-60
2023/06/15 01:04:13;;;;;;;3.65;2.00;;;20.40;81.30;;;;;;4164196;28;20563;-61
2023/06/15 01:06:16;;;;;;;3.50;1.88;;;20.40;80.80;;;;;;4176607;28;20086;-59
2023/06/15 01:08:16;;;;;;;3.28;2.20;;;20.40;80.40;;;;;;4175062;28;20029;-59
2023/06/15 01:10:20;;;;;;;2.58;1.92;;;20.40;80.00;;;;;;4168806;28;20048;-59
2023/06/15 01:12:21;;;;;;;4.15;2.15;;;20.40;80.00;;;;;;4188324;28;20515;-59
2023/06/15 01:14:25;;;;;;;5.25;1.92;;;20.50;80.80;;;;;;4179297;28;20119;-59
2023/06/15 01:16:32;;;;;;;2.53;1.77;;;20.40;80.90;;;;;;4176903;28;20380;-59
2023/06/15 01:18:34;;;;;;;2.47;1.88;;;20.40;80.50;;;;;;4171720;28;20108;-58
2023/06/15 01:20:39;;;;;;;3.05;2.08;;;20.40;79.50;;;;;;4170270;28;20532;-59
2023/06/15 01:23:12;;;;;;;2.33;1.90;;;20.40;78.60;;;;;;4176183;28;20040;-58
2023/06/15 01:25:43;;;;;;;2.28;1.88;;;20.30;78.70;;;;;;4181228;28;20033;-60
2023/06/15 01:27:45;;;;;;;2.65;1.90;;;20.30;79.10;;;;;;4174887;28;20558;-60
2023/06/15 01:29:46;;;;;;;5.72;2.22;;;20.30;80.60;;;;;;4177669;28;20024;-62
2023/06/15 01:31:47;;;;;;;3.28;1.98;;;20.20;79.50;;;;;;4177994;28;20029;-59
2023/06/15 01:33:51;;;;;;;3.03;1.90;;;20.20;79.40;;;;;;4179942;28;20028;-60
2023/06/15 01:35:51;;;;;;;2.42;2.00;;;20.20;79.10;;;;;;4187741;28;20116;-59
2023/06/15 01:37:52;;;;;;;2.65;2.10;;;20.20;80.70;;;;;;4186512;28;20404;-59
2023/06/15 01:39:53;;;;;;;2.97;2.10;;;20.10;80.10;;;;;;4184460;28;20025;-59
2023/06/15 01:41:54;;;;;;;2.40;2.03;;;20.10;81.20;;;;;;4193280;28;20031;-59
2023/06/15 01:43:57;;;;;;;2.72;2.05;;;20.10;81.70;;;;;;4171732;28;20510;-58
2023/06/15 01:46:00;;;;;;;2.00;1.80;;;20.10;82.10;;;;;;4185336;28;20078;-59
2023/06/15 01:48:01;;;;;;;4.18;2.13;;;20.10;82.00;;;;;;4195171;28;20029;-59
2023/06/15 01:50:02;;;;;;;3.03;2.30;;;20.10;82.50;;;;;;4182717;28;20067;-59
2023/06/15 01:52:03;;;;;;;3.08;2.22;;;20.10;82.50;;;;;;4185824;28;20032;-59
2023/06/15 01:54:04;;;;;;;3.08;2.20;;;20.10;81.90;;;;;;4179906;28;20424;-59
2023/06/15 01:56:05;;;;;;;2.58;2.00;;;20.10;82.90;;;;;;4175125;28;20060;-59
2023/06/15 01:58:05;;;;;;;2.45;2.13;;;20.10;82.20;;;;;;4173856;28;20488;-59
2023/06/15 02:00:09;;;;;;;3.13;2.13;;;20.10;81.00;;;;;;4174638;28;20037;-59
2023/06/15 02:02:09;;;;;;;4.68;1.98;;;20.10;80.50;;;;;;4177049;28;20373;-59
2023/06/15 02:04:10;;;;;;;3.55;2.17;;;20.10;80.30;;;;;;4178091;28;20106;-58
2023/06/15 02:06:10;;;;;;;3.70;2.20;;;20.10;81.20;;;;;;4171257;28;20041;-59
2023/06/15 02:08:12;;;;;;;2.33;1.58;;;20.10;80.80;;;;;;4177057;28;20572;-59
2023/06/15 02:10:13;;;;;;;4.70;2.20;;;20.00;81.00;;;;;;4172691;28;20034;-59
2023/06/15 02:12:13;;;;;;;3.60;2.13;;;20.00;81.20;;;;;;4166697;28;20099;-59
2023/06/15 02:14:17;;;;;;;3.97;1.95;;;20.00;81.20;;;;;;4169924;28;20427;-61
2023/06/15 02:16:19;;;;;;;3.92;2.40;;;20.00;82.00;;;;;;4165470;28;20448;-59
2023/06/15 02:18:20;;;;;;;2.95;2.00;;;20.00;81.90;;;;;;4167105;28;20053;-59
2023/06/15 02:20:21;;;;;;;6.38;2.42;;;20.00;82.40;;;;;;4166128;28;20401;-59
2023/06/15 02:22:22;;;;;;;3.42;2.08;;;20.00;82.50;;;;;;4172413;28;20061;-59
2023/06/15 02:24:23;;;;;;;3.65;2.50;;;19.90;81.70;;;;;;4171769;28;20037;-58
2023/06/15 02:26:23;;;;;;;2.58;2.13;;;19.90;81.50;;;;;;4175056;28;20116;-59
2023/06/15 02:28:24;;;;;;;3.47;2.30;;;19.90;82.50;;;;;;4173190;28;20059;-59
2023/06/15 02:30:25;;;;;;;4.35;2.33;;;19.90;81.60;;;;;;4171887;28;20476;-60
2023/06/15 02:32:35;;;;;;;3.33;2.30;;;19.90;81.10;;;;;;4174173;28;20029;-58
2023/06/15 02:34:36;;;;;;;2.38;1.80;;;19.90;80.60;;;;;;4171740;28;20526;-59
2023/06/15 02:36:37;;;;;;;4.25;2.55;;;19.90;80.40;;;;;;4175103;28;20109;-59
2023/06/15 02:38:38;;;;;;;4.95;2.10;;;19.90;80.60;;;;;;4176211;28;20089;-59
2023/06/15 02:40:38;;;;;;;3.30;2.03;;;19.90;81.10;;;;;;4169001;28;20419;-59
2023/06/15 02:42:39;;;;;;;2.65;2.08;;;19.80;81.40;;;;;;4176303;28;20033;-59
2023/06/15 02:44:40;;;;;;;4.28;2.30;;;19.90;81.40;;;;;;4176122;28;20647;-59
2023/06/15 02:46:41;;;;;;;3.42;2.75;;;19.80;81.60;;;;;;4174030;28;20574;-58
2023/06/15 02:48:42;;;;;;;2.83;2.13;;;19.80;81.50;;;;;;4169042;28;20780;-59
2023/06/15 02:50:42;;;;;;;3.35;2.33;;;19.80;82.50;;;;;;4172519;28;20045;-58
2023/06/15 02:52:45;;;;;;;5.85;2.30;;;19.80;83.50;;;;;;4173692;28;20082;-58
2023/06/15 02:54:46;;;;;;;7.05;2.75;;;19.80;82.60;;;;;;4174379;28;20033;-59
2023/06/15 02:56:46;;;;;;;3.90;2.83;;;19.80;82.00;;;;;;4175929;28;20108;-59
2023/06/15 02:58:48;;;;;;;4.05;2.28;;;19.70;82.00;;;;;;4177791;28;20079;-59
2023/06/15 03:00:49;;;;;;;2.90;2.38;;;19.70;82.60;;;;;;4177714;28;20108;-63
2023/06/15 03:02:52;;;;;;;3.88;2.83;;;19.70;82.60;;;;;;4186591;28;20044;-60
2023/06/15 03:04:53;;;;;;;3.25;2.47;;;19.70;82.60;;;;;;4194708;28;20025;-58
2023/06/15 03:06:57;;;;;;;2.90;2.60;;;19.70;82.70;;;;;;4173680;28;20045;-59
2023/06/15 03:08:57;;;;;;;3.95;2.53;;;19.70;82.80;;;;;;4177908;28;20033;-59
2023/06/15 03:10:58;;;;;;;3.97;2.60;;;19.60;82.80;;;;;;4190278;28;20120;-58
2023/06/15 03:12:58;;;;;;;4.90;2.50;;;19.60;83.20;;;;;;4173075;28;20036;-59
2023/06/15 03:15:02;;;;;;;7.13;2.90;;;19.60;83.20;;;;;;4176686;28;20120;-58
2023/06/15 03:17:02;;;;;;;3.10;2.80;;;19.60;83.30;;;;;;4170915;28;20021;-59
2023/06/15 03:19:03;;;;;;;3.20;2.33;;;19.60;84.10;;;;;;4180087;28;20025;-57
2023/06/15 03:21:07;;;;;;;3.80;2.60;;;19.50;83.60;;;;;;4176829;28;20040;-59
2023/06/15 03:23:09;;;;;;;3.40;2.67;;;19.50;83.60;;;;;;4177373;28;20371;-58
2023/06/15 03:25:11;;;;;;;2.83;2.47;;;19.50;84.00;;;;;;4195383;28;20463;-60
2023/06/15 03:27:11;;;;;;;4.32;2.40;;;19.50;84.40;;;;;;4177879;28;20045;-59
2023/06/15 03:29:13;;;;;;;3.58;2.80;;;19.50;84.00;;;;;;4177850;28;20036;-58
2023/06/15 03:31:17;;;;;;;7.40;3.15;;;19.50;84.50;;;;;;4180692;28;20047;-59
2023/06/15 03:33:21;;;;;;;2.88;2.38;;;19.50;83.90;;;;;;4181418;28;20515;-58
2023/06/15 03:35:21;;;;;;;6.55;2.97;;;19.40;84.80;;;;;;4182674;28;20108;-58
2023/06/15 03:37:22;;;;;;;4.78;2.72;;;19.40;84.20;;;;;;4178455;28;20029;-58
2023/06/15 03:39:22;;;;;;;3.35;2.75;;;19.50;85.00;;;;;;4178195;28;20029;-59
2023/06/15 03:41:23;;;;;;;5.18;3.10;;;19.40;84.50;;;;;;4187599;28;20025;-59
2023/06/15 03:43:24;;;;;;;3.22;2.22;;;19.50;84.30;;;;;;4174198;28;20040;-59
2023/06/15 03:45:25;;;;;;;4.22;2.67;;;19.40;84.40;;;;;;4174551;28;20033;-59
2023/06/15 03:47:25;;;;;;;3.47;2.53;;;19.40;84.10;;;;;;4179901;28;20041;-59
2023/06/15 03:49:26;;;;;;;3.47;2.88;;;19.40;84.70;;;;;;4177753;28;20021;-59
2023/06/15 03:51:27;;;;;;;6.45;3.38;;;19.40;84.60;;;;;;4176148;28;20036;-59
2023/06/15 03:53:27;;;;;;;3.58;2.60;;;19.40;84.70;;;;;;4180348;28;20025;-59
2023/06/15 03:55:30;;;;;;;6.25;3.10;;;19.40;84.80;;;;;;4176686;28;20036;-59
2023/06/15 03:57:30;;;;;;;3.33;2.38;;;19.40;85.40;;;;;;4176423;28;20132;-59
2023/06/15 03:59:31;;;;;;;3.25;2.42;;;19.40;85.30;;;;;;4180372;28;20040;-59
2023/06/15 04:01:32;;;;;;;4.70;2.78;;;19.30;85.10;;;;;;4180389;28;20044;-59
2023/06/15 04:03:36;;;;;;;3.28;2.50;;;19.30;85.40;;;;;;4181196;28;20044;-58
2023/06/15 04:05:37;;;;;;;6.13;3.25;;;19.30;85.40;;;;;;4186145;28;20383;-59
2023/06/15 04:07:39;;;;;;;3.25;2.53;;;19.30;85.40;;;;;;4182242;28;20112;-59
2023/06/15 04:09:40;;;;;;;3.65;2.60;;;19.30;85.40;;;;;;4180767;28;20062;-59
2023/06/15 04:11:41;;;;;;;3.30;2.53;;;19.30;85.50;;;;;;4173761;28;20033;-59
2023/06/15 04:13:42;;;;;;;3.70;2.88;;;19.30;85.80;;;;;;4178156;28;20037;-58
2023/06/15 04:15:42;;;;;;;5.22;3.00;;;19.30;86.70;;;;;;4180151;28;20162;-58
2023/06/15 04:17:43;;;;;;;4.07;2.67;;;19.30;86.20;;;;;;4191949;28;20036;-59
2023/06/15 04:19:45;;;;;;;4.43;3.10;;;19.30;86.40;;;;;;4175690;28;20029;-59
2023/06/15 04:21:47;;;;;;;3.78;2.60;;;19.30;86.70;;;;;;4186737;28;20466;-59
2023/06/15 04:23:48;;;;;;;4.05;3.05;;;19.30;86.40;;;;;;4188470;28;20433;-59
2023/06/15 04:25:48;;;;;;;3.72;2.80;;;19.30;87.20;;;;;;4179925;28;20064;-57
2023/06/15 04:27:50;;;;;;;4.53;2.58;;;19.40;87.00;;;;;;4176876;28;20036;-62
2023/06/15 04:29:52;;;;;;;4.25;3.13;;;19.30;86.80;;;;;;4181025;28;20430;-59
2023/06/15 04:31:54;;;;;;;6.00;3.22;;;19.40;87.10;;;;;;4183938;28;20480;-56
2023/06/15 04:33:58;;;;;;;4.87;3.20;;;19.40;87.00;;;;;;4173598;28;20044;-59
2023/06/15 04:36:01;;;;;;;5.82;2.90;;;19.40;87.20;;;;;;4182289;28;20028;-59
2023/06/15 04:38:04;;;;;;;5.13;3.42;;;19.30;87.30;;;;;;4190567;28;20461;-59
2023/06/15 04:40:09;;;;;;;5.25;3.42;;;19.40;87.20;;;;;;4174136;28;20106;-60
2023/06/15 04:42:11;;;;;;;6.28;3.22;;;19.40;87.10;;;;;;4183840;28;20034;-59
2023/06/15 04:44:12;;;;;;;6.28;3.17;;;19.40;87.10;;;;;;4166979;28;20034;-59
2023/06/15 04:46:12;;;;;;;6.88;3.15;;;19.40;87.30;;;;;;4168911;28;20049;-59
2023/06/15 04:48:13;;;;;;;3.88;2.88;;;19.40;87.80;;;;;;4183479;28;20094;-59
2023/06/15 04:50:14;;;;;;;5.40;2.75;;;19.40;87.80;;;;;;4185915;28;20029;-59
2023/06/15 04:52:14;;;;;;;4.97;3.35;;;19.50;88.10;;;;;;4190932;28;20029;-58
2023/06/15 04:54:15;;;;;;;4.18;2.95;;;19.50;88.20;;;;;;4185524;28;20033;-60
2023/06/15 04:56:16;;;;;;;5.55;3.33;;;19.50;88.20;;;;;;4176211;28;20028;-57
2023/06/15 04:58:17;;;;;;;3.50;3.08;;;19.50;88.20;;;;;;4177474;28;20032;-61
2023/06/15 05:00:19;;;;;;;6.80;3.67;;;19.50;88.40;;;;;;4171231;28;20392;-59
2023/06/15 05:02:20;;;;;;;4.07;3.22;;;19.50;90.00;;;;;;4175532;28;20032;-58
2023/06/15 05:04:22;;;;;;;6.65;3.58;;;19.60;90.40;;;;;;4185438;28;20470;-59
2023/06/15 05:06:22;;;;;;;8.02;3.85;;;19.50;89.80;;;;;;4164696;28;20092;-59
2023/06/15 05:08:23;;;;;;;5.03;3.30;;;19.60;88.90;;;;;;4189474;28;20028;-61
2023/06/15 05:10:23;;;;;;;4.78;3.35;;;19.50;89.50;;;;;;4179392;28;20249;-61
2023/06/15 05:12:24;;;;;;;5.07;3.35;;;19.60;89.10;;;;;;4189945;28;20036;-61
2023/06/15 05:14:26;;;;;;;11.52;4.20;;;19.60;89.20;;;;;;4175786;28;20116;-62
2023/06/15 05:16:26;;;;;;;5.10;3.40;;;19.70;89.40;;;;;;4172811;28;20038;-61
2023/06/15 05:18:27;;;;;;;5.93;3.53;;;19.70;89.20;;;;;;4173585;28;20119;-61
2023/06/15 05:20:28;;;;;;;5.03;3.58;;;19.70;89.80;;;;;;4184189;28;20440;-61
2023/06/15 05:22:28;;;;;;;4.20;3.05;;;19.80;89.30;;;;;;4177775;28;20404;-61
2023/06/15 05:24:29;;;;;;;5.63;3.72;;;19.80;89.40;;;;;;4172968;28;20083;-61
2023/06/15 05:26:30;;;;;;;5.20;3.58;;;19.90;89.50;;;;;;4170502;28;20036;-61
2023/06/15 05:28:30;;;;;;;6.20;3.20;;;19.90;89.80;;;;;;4175862;28;20497;-60
2023/06/15 05:30:31;;;;;;;5.50;3.60;;;19.90;90.20;;;;;;4172537;28;20563;-61
2023/06/15 05:32:37;;;;;;;5.97;3.38;;;20.00;90.10;;;;;;4179632;28;20028;-61
2023/06/15 05:34:37;;;;;;;5.57;3.40;;;20.00;89.60;;;;;;4169363;28;20040;-61
2023/06/15 05:36:38;;;;;;;4.65;3.40;;;20.10;89.50;;;;;;4175854;28;20460;-61
2023/06/15 05:38:39;;;;;;;5.65;3.50;;;20.10;89.70;;;;;;4176587;28;20036;-61
2023/06/15 05:40:39;;;;;;;6.47;3.55;;;20.20;90.50;;;;;;4174030;28;20025;-61
2023/06/15 05:42:40;;;;;;;5.40;3.40;;;20.20;90.10;;;;;;4191198;28;20028;-61
2023/06/15 05:44:41;;;;;;;5.47;3.55;;;20.30;90.10;;;;;;4184326;28;20037;-61
2023/06/15 05:46:42;;;;;;;7.25;4.30;;;20.40;90.30;;;;;;4173974;28;20419;-61
2023/06/15 05:48:42;;;;;;;6.85;4.25;;;20.50;90.80;;;;;;4175722;28;20033;-61
2023/06/15 05:50:43;;;;;;;6.35;4.10;;;20.80;90.90;;;;;;4183230;28;20041;-61
2023/06/15 05:52:43;;;;;;;7.85;4.32;;;21.10;90.60;;;;;;4191215;28;20119;-62
2023/06/15 05:54:45;;;;;;;6.50;3.80;;;21.50;90.20;;;;;;4192803;28;20028;-62
2023/06/15 05:56:45;;;;;;;6.82;3.63;;;21.90;89.10;;;;;;4174595;28;20041;-62
2023/06/15 05:58:46;;;;;;;6.47;4.10;;;22.30;88.70;;;;;;4190508;28;20025;-62
2023/06/15 06:00:46;;;;;;;6.95;3.95;;;22.80;87.70;;;;;;4173755;28;20029;-62
2023/06/15 06:02:47;;;;;;;7.90;3.85;;;23.20;87.10;;;;;;4176244;28;20044;-68
2023/06/15 06:04:48;;;;;;;7.32;3.90;;;23.60;86.20;;;;;;4171898;28;20029;-64
2023/06/15 06:06:48;;;;;;;5.88;3.63;;;23.90;85.00;;;;;;4175209;28;20036;-63
2023/06/15 06:08:49;;;;;;;5.53;3.78;;;24.40;83.30;;;;;;4193781;28;20029;-62
2023/06/15 06:10:50;;;;;;;4.82;3.58;;;24.80;80.90;;;;;;4182670;28;20041;-62
2023/06/15 06:12:52;;;;;;;7.70;4.88;;;25.10;80.00;;;;;;4174610;28;20021;-62
2023/06/15 06:14:52;;;;;;;6.47;3.92;;;25.50;79.90;;;;;;4175411;28;20610;-62
2023/06/15 06:16:54;;;;;;;5.32;3.50;;;25.90;79.50;;;;;;4178569;28;20036;-63
2023/06/15 06:18:55;;;;;;;7.30;3.63;;;26.20;74.10;;;;;;4196388;28;20098;-63
2023/06/15 06:20:56;;;;;;;7.13;3.50;;;26.40;73.70;;;;;;4190512;28;20126;-63
2023/06/15 06:22:56;;;;;;;7.15;4.13;;;26.70;75.00;;;;;;4190309;28;20025;-62
2023/06/15 06:24:57;;;;;;;13.60;4.55;;;26.90;74.90;;;;;;4195515;28;20497;-62
2023/06/15 06:26:57;;;;;;;6.40;4.20;;;27.20;72.70;;;;;;4165327;28;20487;-62
2023/06/15 06:28:58;;;;;;;6.63;3.78;;;27.40;73.20;;;;;;4162642;28;20075;-62
2023/06/15 06:30:59;;;;;;;7.82;3.47;;;27.50;73.10;;;;;;4168613;28;20037;-63
2023/06/15 06:33:00;;;;;;;8.20;3.80;;;27.60;71.20;;;;;;4179861;28;20033;-63
2023/06/15 06:35:01;;;;;;;5.70;3.60;;;27.70;72.10;;;;;;4180096;28;20059;-63
2023/06/15 06:37:03;;;;;;;7.53;4.15;;;27.80;72.90;;;;;;4163457;28;20269;-63
2023/06/15 06:39:04;;;;;;;6.05;3.60;;;27.90;71.90;;;;;;4166976;28;20048;-63
2023/06/15 06:41:04;;;;;;;7.65;3.50;;;27.90;71.80;;;;;;4176967;28;20021;-62
2023/06/15 06:43:05;;;;;;;9.57;4.47;;;27.90;72.00;;;;;;4167277;28;20061;-63
2023/06/15 06:45:06;;;;;;;7.53;3.33;;;27.90;68.80;;;;;;4176187;28;20039;-68
2023/06/15 06:47:07;;;;;;;10.32;4.80;;;27.90;68.20;;;;;;4184345;28;20033;-63
2023/06/15 06:49:07;;;;;;;6.03;3.47;;;27.90;68.00;;;;;;4189966;28;20373;-63
2023/06/15 06:51:08;;;;;;;3.97;2.78;;;27.80;67.30;;;;;;4187616;28;20116;-63
2023/06/15 06:53:08;;;;;;;6.90;2.92;;;27.80;65.60;;;;;;4179984;28;20037;-63
2023/06/15 06:55:09;;;;;;;4.25;3.15;;;27.80;64.50;;;;;;4195081;28;20045;-64
2023/06/15 06:57:11;;;;;;;8.88;2.90;;;27.80;63.00;;;;;;4180671;28;20546;-63
2023/06/15 06:59:11;;;;;;;4.63;2.63;;;27.70;63.00;;;;;;4174115;28;20044;-64
2023/06/15 07:01:12;;;;;;;3.65;2.67;;;27.70;63.90;;;;;;4172969;28;20107;-63
2023/06/15 07:03:12;;;;;;;4.57;2.70;;;27.70;62.90;;;;;;4170896;28;20044;-62
2023/06/15 07:05:13;;;;;;;4.28;2.40;;;27.70;65.40;;;;;;4169421;28;20063;-63
2023/06/15 07:07:13;;;;;;;4.47;2.97;;;27.70;60.70;;;;;;4171535;28;20099;-63
2023/06/15 07:09:14;;;;;;;4.18;2.35;;;27.70;61.50;;;;;;4170319;28;20085;-63
2023/06/15 07:11:14;;;;;;;3.88;2.50;;;27.80;62.10;;;;;;4172455;28;20040;-63
2023/06/15 07:13:15;;;;;;;7.03;2.28;;;27.80;60.10;;;;;;4174075;28;20050;-63
2023/06/15 07:15:16;;;;;;;3.17;2.50;;;27.80;60.80;;;;;;4173622;28;20067;-63
2023/06/15 07:17:16;;;;;;;2.90;2.33;;;27.80;59.40;;;;;;4173428;28;20032;-63
2023/06/15 07:19:17;;;;;;;3.22;2.40;;;27.70;59.80;;;;;;4170697;28;20642;-63
2023/06/15 07:21:17;;;;;;;4.30;2.45;;;27.80;61.20;;;;;;4169775;28;20069;-62
2023/06/15 07:23:18;;;;;;;5.32;2.20;;;27.70;60.80;;;;;;4169971;28;20033;-62
2023/06/15 07:25:19;;;;;;;3.95;2.58;;;27.80;59.40;;;;;;4169916;28;20033;-64
2023/06/15 07:27:20;;;;;;;2.50;1.98;;;27.80;59.00;;;;;;4171005;28;20037;-63
2023/06/15 07:29:21;;;;;;;6.90;2.42;;;27.80;57.70;;;;;;4173086;28;20479;-62
2023/06/15 07:31:22;;;;;;;4.47;2.58;;;27.90;57.50;;;;;;4173473;28;20033;-62
2023/06/15 07:33:22;;;;;;;3.90;2.42;;;27.90;58.10;;;;;;4171902;28;20053;-62
2023/06/15 07:35:23;;;;;;;4.07;2.83;;;28.00;57.70;;;;;;4169190;28;20032;-63
2023/06/15 07:37:23;;;;;;;3.40;2.33;;;28.00;57.70;;;;;;4167875;28;20439;-66
2023/06/15 07:39:24;;;;;;;4.20;2.60;;;28.10;58.20;;;;;;4171080;28;20500;-64
2023/06/15 07:41:24;;;;;;;2.75;2.08;;;28.00;58.20;;;;;;4167649;28;20472;-64
2023/06/15 07:43:25;;;;;;;4.22;2.33;;;28.10;57.80;;;;;;4168769;28;20064;-64
2023/06/15 07:45:26;;;;;;;4.07;2.20;;;28.10;58.50;;;;;;4172839;28;20044;-64
2023/06/15 07:47:27;;;;;;;5.82;2.42;;;28.20;58.90;;;;;;4175746;28;20072;-64
2023/06/15 07:49:27;;;;;;;6.43;2.28;;;28.20;58.80;;;;;;4177783;28;20040;-63
2023/06/15 07:51:28;;;;;;;5.32;2.47;;;28.30;59.30;;;;;;4170367;28;20667;-63
2023/06/15 07:53:29;;;;;;;4.32;2.30;;;28.30;59.20;;;;;;4172712;28;20369;-64
2023/06/15 07:55:30;;;;;;;3.63;2.58;;;28.40;59.60;;;;;;4177348;28;20055;-63
2023/06/15 07:57:30;;;;;;;4.35;2.50;;;28.40;57.30;;;;;;4170762;28;20054;-62
2023/06/15 07:59:31;;;;;;;5.00;2.38;;;28.40;61.60;;;;;;4171899;28;20029;-62
2023/06/15 08:01:32;;;;;;;5.72;2.45;;;28.50;60.90;;;;;;4170142;28;20036;-63
2023/06/15 08:03:32;;;;;;;4.80;3.17;;;28.60;60.20;;;;;;4170155;28;20120;-63
2023/06/15 08:05:33;;;;;;;6.90;2.67;;;28.60;59.80;;;;;;4169151;28;20485;-63
2023/06/15 08:07:33;;;;;;;7.90;2.92;;;28.70;60.60;;;;;;4169390;28;20431;-62
2023/06/15 08:09:34;;;;;;;3.85;2.55;;;28.80;60.00;;;;;;4170403;28;20065;-63
2023/06/15 08:11:35;;;;;;;4.57;2.65;;;28.80;58.90;;;;;;4171065;28;20475;-63
2023/06/15 08:13:37;;;;;;;3.22;2.22;;;28.90;59.80;;;;;;4170664;28;20397;-63
2023/06/15 08:15:38;;;;;;;4.97;2.90;;;28.90;60.90;;;;;;4182071;28;20387;-63
2023/06/15 08:17:38;;;;;;;3.83;2.60;;;29.00;60.50;;;;;;4194817;28;20040;-62
2023/06/15 08:19:39;;;;;;;4.88;2.80;;;29.00;59.20;;;;;;4175842;28;20047;-63
2023/06/15 08:21:41;;;;;;;3.83;2.47;;;29.00;58.60;;;;;;4169054;28;20498;-62
2023/06/15 08:23:42;;;;;;;4.50;2.80;;;29.00;59.70;;;;;;4171370;28;20043;-62
2023/06/15 08:25:42;;;;;;;6.43;3.00;;;29.10;59.70;;;;;;4168785;28;20112;-63
2023/06/15 08:27:43;;;;;;;5.95;3.10;;;29.10;60.50;;;;;;4164667;28;20037;-63
2023/06/15 08:29:44;;;;;;;3.80;2.38;;;29.10;58.50;;;;;;4169739;28;20513;-63
2023/06/15 08:31:45;;;;;;;2.83;2.40;;;29.10;59.20;;;;;;4171391;28;20045;-63
2023/06/15 08:33:45;;;;;;;4.85;2.90;;;29.10;59.60;;;;;;4170319;28;20041;-63
2023/06/15 08:35:46;;;;;;;4.75;2.60;;;29.20;61.60;;;;;;4165779;28;20033;-63
2023/06/15 08:37:47;;;;;;;4.75;2.75;;;29.20;60.20;;;;;;4176584;28;20107;-63
2023/06/15 08:39:47;;;;;;;5.72;2.75;;;29.30;59.60;;;;;;4173878;28;20075;-63
2023/06/15 08:41:48;;;;;;;9.57;3.20;;;29.40;59.30;;;;;;4170415;28;20029;-63
2023/06/15 08:43:51;;;;;;;6.35;2.97;;;29.40;60.40;;;;;;4170885;28;20037;-63
2023/06/15 08:45:58;;;;;;;7.53;3.50;;;29.40;59.40;;;;;;4168189;28;20455;-63
2023/06/15 08:48:02;;;;;;;7.43;3.33;;;29.10;56.70;;;;;;4168858;28;20040;-63
2023/06/15 08:50:04;;;;;;;6.97;3.45;;;29.20;58.90;;;;;;4168894;28;20042;-65
2023/06/15 08:52:08;;;;;;;9.10;3.47;;;29.20;59.50;;;;;;4160923;28;20441;-62
2023/06/15 08:54:09;;;;;;;5.38;2.83;;;29.30;59.60;;;;;;4150152;28;20599;-63
2023/06/15 08:56:11;;;;;;;9.73;3.65;;;29.20;56.80;;;;;;4182725;28;20048;-63
2023/06/15 08:58:11;;;;;;;6.75;3.88;;;28.70;55.40;;;;;;4175254;28;20064;-62
2023/06/15 09:00:13;;;;;;;6.22;3.17;;;28.50;55.80;;;;;;4172192;28;20037;-64
2023/06/15 09:02:21;;;;;;;5.95;3.33;;;28.40;56.20;;;;;;4171285;28;20032;-64
2023/06/15 09:04:23;;;;;;;8.05;3.60;;;28.40;56.40;;;;;;4139580;28;20414;-64
2023/06/15 09:06:24;;;;;;;5.30;3.08;;;28.40;57.30;;;;;;4139844;28;20046;-63
2023/06/15 09:08:24;;;;;;;7.60;3.55;;;28.40;59.10;;;;;;4140301;28;20377;-64
2023/06/15 09:10:26;;;;;;;5.65;3.05;;;28.40;58.50;;;;;;4144278;28;20033;-66
2023/06/15 09:12:27;;;;;;;6.57;3.15;;;28.40;57.00;;;;;;4139560;28;20073;-63
2023/06/15 09:14:39;;;;;;;6.72;3.17;;;28.50;59.60;;;;;;4138007;28;20480;-63
2023/06/15 09:16:41;;;;;;;7.90;3.13;;;28.60;61.10;;;;;;4139388;28;20416;-62
2023/06/15 09:18:51;;;;;;;4.75;2.92;;;28.30;55.80;;;;;;4136655;28;20026;-62
2023/06/15 09:20:58;;;;;;;4.35;3.00;;;28.00;54.50;;;;;;4131977;28;20493;-63
2023/06/15 09:23:01;;;;;;;6.30;2.85;;;27.90;56.00;;;;;;4132492;28;20495;-62
2023/06/15 09:25:06;;;;;;;;;;;28.00;56.30;;;;;;4137950;28;20402;-66
2023/06/15 09:27:16;;;;;;;6.55;2.85;;;28.00;55.80;;;;;;4143179;28;20451;-62
2023/06/15 09:29:17;;;;;;;6.25;2.65;;;27.90;55.40;;;;;;4147946;28;20105;-62
2023/06/15 09:31:34;;;;;;;5.85;2.60;;;28.00;56.50;;;;;;4148517;28;20389;-62
2023/06/15 09:33:34;;;;;;;6.68;2.67;;;28.00;57.20;;;;;;4156425;28;20087;-63
2023/06/15 09:35:35;;;;;;;4.00;2.58;;;28.10;59.10;;;;;;4141641;28;20444;-63
2023/06/15 09:37:37;;;;;;;4.22;2.63;;;28.20;56.00;;;;;;4144493;28;20038;-62
2023/06/15 09:39:45;;;;;;;4.20;2.70;;;27.90;56.50;;;;;;4156434;28;20034;-63
2023/06/15 09:41:58;;;;;;;3.28;2.50;;;28.10;56.50;;;;;;4148830;28;20065;-63
2023/06/15 09:44:03;;;;;;;4.22;2.45;;;27.80;56.10;;;;;;4137146;28;20030;-62
2023/06/15 09:46:19;;;;;;;4.25;2.38;;;27.60;56.90;;;;;;4144863;28;20026;-64
2023/06/15 09:48:20;;;;;;;4.13;2.50;;;27.70;58.10;;;;;;4157725;28;20044;-63
2023/06/15 09:50:27;;;;;;;2.75;2.13;;;27.70;59.60;;;;;;4155697;28;20049;-64
2023/06/15 09:52:28;;;;;;;3.03;2.22;;;27.80;57.10;;;;;;4161469;28;20037;-64
2023/06/15 09:54:28;;;;;;;4.60;2.78;;;27.90;55.70;;;;;;4146816;28;20032;-63
2023/06/15 09:56:29;;;;;;;3.90;2.17;;;27.90;54.80;;;;;;4154309;28;20041;-62
2023/06/15 09:58:31;;;;;;;2.30;2.10;;;28.00;58.60;;;;;;4128200;28;20084;-63
2023/06/15 10:00:41;;;;;;;3.28;2.45;;;28.10;57.00;;;;;;4098620;28;20113;-64
2023/06/15 10:03:00;;;;;;;4.03;2.33;;;28.20;59.10;;;;;;4172761;28;20040;-63
2023/06/15 10:05:04;;;;;;;2.92;2.25;;;28.30;58.40;;;;;;4191036;28;20547;-64
2023/06/15 10:07:06;;;;;;;2.95;2.28;;;28.40;59.10;;;;;;4181456;28;20047;-64
2023/06/15 10:09:10;;;;;;;3.22;2.38;;;28.40;59.20;;;;;;4184438;28;20040;-63
2023/06/15 10:11:13;;;;;;;5.53;2.53;;;28.50;59.60;;;;;;4177407;28;20037;-63
2023/06/15 10:13:23;;;;;;;4.40;2.38;;;28.50;57.20;;;;;;4185382;28;20395;-63
2023/06/15 10:15:26;;;;;;;3.47;2.25;;;28.00;53.20;;;;;;4169279;28;20156;-63
2023/06/15 10:17:37;;;;;;;4.22;2.30;;;27.60;54.40;;;;;;4188995;28;20056;-63
2023/06/15 10:19:43;;;;;;;4.70;2.70;;;27.50;54.90;;;;;;4180086;28;20120;-64
2023/06/15 10:21:46;;;;;;;4.88;2.65;;;27.50;55.00;;;;;;4182186;28;20040;-63
2023/06/15 10:23:51;;;;;;;5.20;2.35;;;27.50;53.80;;;;;;4190848;28;20082;-63
2023/06/15 10:25:57;;;;;;;4.15;2.45;;;27.60;55.40;;;;;;4183943;28;20033;-63
2023/06/15 10:28:02;;;;;;;2.60;2.38;;;27.70;55.40;;;;;;4178691;28;20535;-63
2023/06/15 10:30:08;;;;;;;4.85;2.55;;;27.80;58.40;;;;;;4182967;28;20116;-64
2023/06/15 10:32:18;;;;;;;4.25;2.30;;;28.00;58.70;;;;;;4178404;28;20036;-64
2023/06/15 10:34:28;;;;;;;3.83;2.38;;;28.10;61.80;;;;;;4181034;28;20037;-64
2023/06/15 10:36:42;;;;;;;5.10;2.60;;;28.30;57.50;;;;;;4192824;28;21103;-64